createdAt,value
2019-05-26T00:00:52.773Z,69.88
2019-05-26T00:01:52.763Z,70.21
2019-05-26T00:02:52.772Z,70.21
2019-05-26T00:03:52.753Z,70.01
2019-05-26T00:04:52.725Z,69.91
2019-05-26T00:05:52.716Z,70.01
2019-05-26T00:06:52.706Z,70.21
2019-05-26T00:07:52.722Z,70.32
2019-05-26T00:08:52.681Z,70.52
2019-05-26T00:09:52.722Z,70.21
2019-05-26T00:10:52.686Z,70.92
2019-05-26T00:11:52.647Z,70.92
2019-05-26T00:12:52.666Z,71.06
2019-05-26T00:13:52.663Z,71.47
2019-05-26T00:14:52.625Z,71.36
2019-05-26T00:15:52.698Z,72.28
2019-05-26T00:16:52.595Z,71.57
2019-05-26T00:17:52.595Z,72.08
2019-05-26T00:18:52.599Z,72.08
2019-05-26T00:19:52.563Z,72.58
2019-05-26T00:20:52.549Z,72.62
2019-05-26T00:21:52.552Z,72.21
2019-05-26T00:22:52.540Z,72.55
2019-05-26T00:23:56.038Z,72.52
2019-05-26T00:24:52.547Z,73.06
2019-05-26T00:25:52.533Z,73.46
2019-05-26T00:26:52.482Z,73.87
2019-05-26T00:27:52.478Z,73.77
2019-05-26T00:28:52.482Z,73.91
2019-05-26T00:29:52.453Z,73.87
2019-05-26T00:30:52.438Z,74.01
2019-05-26T00:31:52.431Z,74.01
2019-05-26T00:32:52.421Z,73.91
2019-05-26T00:33:52.434Z,74.01
2019-05-26T00:34:52.400Z,74.11
2019-05-26T00:35:52.417Z,74.52
2019-05-26T00:36:52.394Z,73.91
2019-05-26T00:37:52.382Z,73.70
2019-05-26T00:38:52.377Z,74.24
2019-05-26T00:39:52.347Z,74.85
2019-05-26T00:40:52.399Z,75.06
2019-05-26T00:41:52.325Z,75.16
2019-05-26T00:42:52.319Z,75.16
2019-05-26T00:43:52.335Z,75.46
2019-05-26T00:44:52.289Z,75.77
2019-05-26T00:45:52.282Z,76.59
2019-05-26T00:46:52.293Z,75.50
2019-05-26T00:47:52.253Z,75.26
2019-05-26T00:48:52.249Z,75.30
2019-05-26T00:49:52.252Z,75.50
2019-05-26T00:50:52.271Z,75.40
2019-05-26T00:51:52.212Z,75.50
2019-05-26T00:52:55.668Z,76.21
2019-05-26T00:53:52.196Z,76.11
2019-05-26T00:54:52.204Z,76.01
2019-05-26T00:55:52.185Z,76.01
2019-05-26T00:56:52.166Z,76.65
2019-05-26T00:57:52.149Z,75.95
2019-05-26T00:58:52.133Z,76.35
2019-05-26T00:59:52.144Z,76.45
2019-05-26T01:00:52.150Z,76.86
2019-05-26T01:01:52.105Z,77.26
2019-05-26T01:02:52.089Z,77.26
2019-05-26T01:03:52.102Z,77.37
2019-05-26T01:04:52.097Z,77.37
2019-05-26T01:05:52.135Z,77.06
2019-05-26T01:06:52.051Z,76.96
2019-05-26T01:08:05.273Z,77.06
2019-05-26T01:08:53.022Z,76.96
2019-05-26T01:09:52.031Z,77.30
2019-05-26T01:10:52.007Z,77.40
2019-05-26T01:11:51.994Z,77.51
2019-05-26T01:12:52.001Z,77.51
2019-05-26T01:13:51.969Z,77.51
2019-05-26T01:14:51.972Z,77.81
2019-05-26T01:15:51.960Z,77.61
2019-05-26T01:16:55.619Z,77.71
2019-05-26T01:17:51.924Z,78.32
2019-05-26T01:18:51.944Z,78.46
2019-05-26T01:19:51.920Z,77.71
2019-05-26T01:20:51.894Z,77.91
2019-05-26T01:21:51.881Z,77.71
2019-05-26T01:22:53.857Z,78.26
2019-05-26T01:23:51.858Z,77.75
2019-05-26T01:24:51.861Z,78.36
2019-05-26T01:25:51.852Z,78.36
2019-05-26T01:26:51.825Z,78.26
2019-05-26T01:27:51.812Z,77.95
2019-05-26T01:28:51.803Z,77.85
2019-05-26T01:29:51.796Z,77.95
2019-05-26T01:30:51.797Z,78.36
2019-05-26T01:31:51.770Z,77.95
2019-05-26T01:32:51.762Z,78.56
2019-05-26T01:33:51.747Z,78.77
2019-05-26T01:34:51.732Z,78.77
2019-05-26T01:35:51.736Z,78.77
2019-05-26T01:36:51.715Z,78.91
2019-05-26T01:37:51.762Z,79.00
2019-05-26T01:38:51.767Z,78.80
2019-05-26T01:39:51.687Z,78.80
2019-05-26T01:40:51.691Z,78.91
2019-05-26T01:41:51.660Z,78.80
2019-05-26T01:42:51.642Z,79.00
2019-05-26T01:43:51.637Z,78.91
2019-05-26T01:44:51.618Z,78.84
2019-05-26T01:45:51.626Z,79.41
2019-05-26T01:46:51.601Z,79.41
2019-05-26T01:47:51.585Z,79.35
2019-05-26T01:48:51.585Z,79.93
2019-05-26T01:49:51.587Z,79.55
2019-05-26T01:50:51.569Z,79.55
2019-05-26T01:51:51.544Z,79.35
2019-05-26T01:52:51.539Z,79.66
2019-05-26T01:53:51.519Z,79.80
2019-05-26T01:54:51.513Z,79.96
2019-05-26T01:55:51.545Z,80.16
2019-05-26T01:56:51.514Z,80.37
2019-05-26T01:57:51.472Z,80.30
2019-05-26T01:58:51.467Z,79.86
2019-05-26T01:59:51.497Z,80.37
2019-05-26T02:00:51.446Z,80.47
2019-05-26T02:01:51.456Z,80.61
2019-05-26T02:02:51.439Z,80.51
2019-05-26T02:03:51.413Z,80.61
2019-05-26T02:04:51.450Z,80.71
2019-05-26T02:05:51.391Z,80.30
2019-05-26T02:06:51.393Z,80.71
2019-05-26T02:07:51.374Z,80.20
2019-05-26T02:08:51.360Z,80.30
2019-05-26T02:09:51.343Z,80.41
2019-05-26T02:10:51.327Z,80.30
2019-05-26T02:11:51.314Z,80.10
2019-05-26T02:12:51.327Z,80.10
2019-05-26T02:13:51.311Z,80.10
2019-05-26T02:14:51.356Z,80.41
2019-05-26T02:15:51.277Z,80.30
2019-05-26T02:16:51.271Z,80.20
2019-05-26T02:17:51.286Z,80.00
2019-05-26T02:18:51.297Z,80.51
2019-05-26T02:19:51.228Z,80.61
2019-05-26T02:20:51.214Z,80.91
2019-05-26T02:21:51.209Z,80.71
2019-05-26T02:22:51.227Z,81.02
2019-05-26T02:23:51.191Z,81.12
2019-05-26T02:24:51.191Z,80.65
2019-05-26T02:25:51.230Z,81.16
2019-05-26T02:26:51.331Z,81.16
2019-05-26T02:27:51.152Z,81.26
2019-05-26T02:28:51.129Z,81.16
2019-05-26T02:29:51.138Z,81.05
2019-05-26T02:30:51.107Z,81.37
2019-05-26T02:31:51.096Z,81.26
2019-05-26T02:32:51.095Z,81.10
2019-05-26T02:33:51.093Z,81.26
2019-05-26T02:34:51.061Z,81.71
2019-05-26T02:35:51.045Z,81.40
2019-05-26T02:36:51.042Z,81.51
2019-05-26T02:37:51.047Z,81.51
2019-05-26T02:39:02.183Z,81.40
2019-05-26T02:39:52.008Z,81.91
2019-05-26T02:40:51.002Z,81.95
2019-05-26T02:41:50.991Z,81.81
2019-05-26T02:42:50.977Z,81.95
2019-05-26T02:43:50.978Z,81.85
2019-05-26T02:44:50.958Z,82.26
2019-05-26T02:45:50.948Z,81.95
2019-05-26T02:46:50.941Z,81.95
2019-05-26T02:47:50.927Z,81.95
2019-05-26T02:48:50.923Z,82.87
2019-05-26T02:49:50.898Z,82.77
2019-05-26T02:50:50.889Z,82.67
2019-05-26T02:51:50.870Z,82.56
2019-05-26T02:52:50.890Z,82.77
2019-05-26T02:53:50.862Z,82.87
2019-05-26T02:54:50.855Z,82.67
2019-05-26T02:55:50.825Z,82.77
2019-05-26T02:56:50.816Z,82.70
2019-05-26T02:57:50.835Z,81.99
2019-05-26T02:58:50.833Z,82.40
2019-05-26T02:59:50.787Z,82.87
2019-05-26T03:00:50.789Z,82.81
2019-05-26T03:02:03.189Z,83.22
2019-05-26T03:02:51.743Z,82.87
2019-05-26T03:03:50.772Z,82.97
2019-05-26T03:04:50.721Z,82.91
2019-05-26T03:05:50.719Z,82.91
2019-05-26T03:06:50.705Z,83.32
2019-05-26T03:07:50.689Z,82.91
2019-05-26T03:08:50.709Z,83.22
2019-05-26T03:09:50.696Z,83.32
2019-05-26T03:10:50.666Z,83.32
2019-05-26T03:11:50.655Z,83.83
2019-05-26T03:12:50.637Z,83.32
2019-05-26T03:13:50.627Z,83.52
2019-05-26T03:14:50.636Z,83.22
2019-05-26T03:15:50.609Z,83.42
2019-05-26T03:16:50.602Z,83.32
2019-05-26T03:17:50.587Z,83.73
2019-05-26T03:18:50.580Z,83.52
2019-05-26T03:19:50.577Z,83.83
2019-05-26T03:20:50.570Z,83.25
2019-05-26T03:21:50.546Z,83.11
2019-05-26T03:22:50.541Z,83.73
2019-05-26T03:23:50.519Z,83.32
2019-05-26T03:24:50.531Z,82.64
2019-05-26T03:25:50.530Z,82.91
2019-05-26T03:26:50.486Z,83.46
2019-05-26T03:27:50.492Z,83.56
2019-05-26T03:28:50.465Z,83.42
2019-05-26T03:29:50.497Z,83.97
2019-05-26T03:30:50.471Z,83.97
2019-05-26T03:31:50.447Z,83.42
2019-05-26T03:32:50.432Z,83.62
2019-05-26T03:33:50.409Z,83.56
2019-05-26T03:34:50.432Z,83.46
2019-05-26T03:35:50.443Z,83.56
2019-05-26T03:36:50.384Z,83.56
2019-05-26T03:37:50.382Z,83.87
2019-05-26T03:38:50.366Z,83.46
2019-05-26T03:39:50.383Z,83.36
2019-05-26T03:40:50.338Z,83.15
2019-05-26T03:41:50.330Z,83.36
2019-05-26T03:42:50.413Z,83.76
2019-05-26T03:43:50.298Z,83.97
2019-05-26T03:44:50.314Z,82.95
2019-05-26T03:45:50.319Z,82.95
2019-05-26T03:46:50.281Z,83.46
2019-05-26T03:47:50.260Z,83.76
2019-05-26T03:48:50.306Z,83.05
2019-05-26T03:49:50.240Z,83.60
2019-05-26T03:50:50.244Z,83.46
2019-05-26T03:51:50.222Z,82.84
2019-05-26T03:52:50.203Z,83.36
2019-05-26T03:53:50.199Z,82.78
2019-05-26T03:54:50.182Z,82.57
2019-05-26T03:55:50.188Z,83.39
2019-05-26T03:56:50.183Z,83.50
2019-05-26T03:57:50.156Z,83.46
2019-05-26T03:58:50.143Z,83.25
2019-05-26T03:59:50.167Z,84.22
2019-05-26T04:00:50.151Z,83.39
2019-05-26T04:01:50.124Z,83.46
2019-05-26T04:02:50.113Z,83.97
2019-05-26T04:03:50.081Z,83.19
2019-05-26T04:04:50.105Z,83.36
2019-05-26T04:05:50.096Z,84.17
2019-05-26T04:06:50.053Z,83.70
2019-05-26T04:07:50.054Z,83.09
2019-05-26T04:08:50.043Z,83.29
2019-05-26T04:10:03.934Z,83.25
2019-05-26T04:10:51.029Z,83.46
2019-05-26T04:11:50.023Z,82.48
2019-05-26T04:12:49.994Z,83.36
2019-05-26T04:13:49.974Z,83.15
2019-05-26T04:14:49.970Z,83.29
2019-05-26T04:15:50.001Z,82.84
2019-05-26T04:16:49.946Z,83.05
2019-05-26T04:17:49.936Z,83.05
2019-05-26T04:18:49.927Z,83.66
2019-05-26T04:19:49.915Z,83.36
2019-05-26T04:20:49.920Z,83.87
2019-05-26T04:21:49.900Z,83.56
2019-05-26T04:22:49.891Z,83.46
2019-05-26T04:23:49.870Z,83.56
2019-05-26T04:24:49.861Z,84.28
2019-05-26T04:25:49.870Z,84.48
2019-05-26T04:26:49.856Z,84.07
2019-05-26T04:27:49.855Z,84.48
2019-05-26T04:28:49.817Z,84.28
2019-05-26T04:29:49.810Z,83.36
2019-05-26T04:30:49.791Z,83.25
2019-05-26T04:31:49.795Z,83.56
2019-05-26T04:32:49.794Z,83.36
2019-05-26T04:33:49.763Z,83.66
2019-05-26T04:34:49.771Z,83.05
2019-05-26T04:35:49.737Z,83.42
2019-05-26T04:36:49.742Z,84.03
2019-05-26T04:37:49.718Z,83.56
2019-05-26T04:38:49.732Z,84.07
2019-05-26T04:39:49.695Z,83.52
2019-05-26T04:40:49.708Z,82.70
2019-05-26T04:41:50.254Z,83.42
2019-05-26T04:42:49.725Z,83.52
2019-05-26T04:43:49.667Z,83.52
2019-05-26T04:44:49.685Z,83.52
2019-05-26T04:45:49.635Z,83.32
2019-05-26T04:46:49.657Z,83.11
2019-05-26T04:47:49.613Z,83.18
2019-05-26T04:48:49.606Z,83.38
2019-05-26T04:49:49.596Z,83.22
2019-05-26T04:50:49.573Z,83.28
2019-05-26T04:51:49.565Z,82.26
2019-05-26T04:53:05.586Z,82.46
2019-05-26T04:53:50.545Z,82.87
2019-05-26T04:54:49.529Z,81.54
2019-05-26T04:55:49.519Z,82.15
2019-05-26T04:56:49.512Z,82.32
2019-05-26T04:57:49.516Z,81.91
2019-05-26T04:58:49.486Z,81.40
2019-05-26T04:59:49.484Z,82.22
2019-05-26T05:00:49.471Z,82.83
2019-05-26T05:01:49.473Z,81.91
2019-05-26T05:02:49.469Z,82.39
2019-05-26T05:03:49.432Z,82.18
2019-05-26T05:04:49.423Z,82.18
2019-05-26T05:05:49.410Z,81.57
2019-05-26T05:06:49.402Z,81.46
2019-05-26T05:07:49.408Z,81.46
2019-05-26T05:08:49.379Z,81.53
2019-05-26T05:09:49.370Z,81.32
2019-05-26T05:10:49.361Z,81.02
2019-05-26T05:11:49.350Z,81.43
2019-05-26T05:12:49.365Z,82.75
2019-05-26T05:13:49.331Z,83.12
2019-05-26T05:14:49.315Z,82.51
2019-05-26T05:15:49.303Z,82.00
2019-05-26T05:16:49.294Z,82.00
2019-05-26T05:17:49.310Z,81.80
2019-05-26T05:18:49.269Z,82.57
2019-05-26T05:19:49.271Z,82.21
2019-05-26T05:20:49.253Z,81.45
2019-05-26T05:21:49.240Z,80.74
2019-05-26T05:22:49.251Z,80.64
2019-05-26T05:23:49.213Z,79.89
2019-05-26T05:24:49.207Z,79.32
2019-05-26T05:25:49.191Z,79.58
2019-05-26T05:26:49.193Z,80.19
2019-05-26T05:27:49.173Z,79.68
2019-05-26T05:28:49.177Z,79.34
2019-05-26T05:29:49.149Z,78.83
2019-05-26T05:30:49.139Z,79.14
2019-05-26T05:31:49.125Z,79.44
2019-05-26T05:32:49.114Z,79.03
2019-05-26T05:33:49.120Z,77.40
2019-05-26T05:34:49.094Z,77.51
2019-05-26T05:35:49.090Z,76.90
2019-05-26T05:36:49.067Z,77.17
2019-05-26T05:37:49.064Z,77.17
2019-05-26T05:38:49.061Z,77.06
2019-05-26T05:39:49.046Z,77.78
2019-05-26T05:40:58.994Z,77.06
2019-05-26T05:41:50.028Z,77.17
2019-05-26T05:42:49.006Z,76.31
2019-05-26T05:43:49.080Z,77.44
2019-05-26T05:44:48.977Z,77.74
2019-05-26T05:45:48.974Z,77.44
2019-05-26T05:46:48.954Z,76.11
2019-05-26T05:47:48.943Z,75.26
2019-05-26T05:48:48.932Z,74.85
2019-05-26T05:49:48.963Z,76.28
2019-05-26T05:50:48.911Z,76.04
2019-05-26T05:51:48.913Z,75.63
2019-05-26T05:52:48.890Z,75.94
2019-05-26T05:53:48.897Z,75.94
2019-05-26T05:54:48.882Z,75.94
2019-05-26T05:55:48.855Z,75.49
2019-05-26T05:56:48.860Z,75.33
2019-05-26T05:57:48.833Z,75.40
2019-05-26T05:58:48.821Z,76.10
2019-05-26T05:59:48.831Z,75.36
2019-05-26T06:00:48.803Z,77.09
2019-05-26T06:01:48.798Z,75.73
2019-05-26T06:02:48.782Z,76.34
2019-05-26T06:03:48.770Z,74.92
2019-05-26T06:04:48.800Z,75.02
2019-05-26T06:05:48.744Z,75.02
2019-05-26T06:06:48.732Z,74.82
2019-05-26T06:07:48.726Z,75.12
2019-05-26T06:08:48.718Z,74.27
2019-05-26T06:09:48.723Z,73.77
2019-05-26T06:10:48.701Z,73.97
2019-05-26T06:11:52.417Z,72.34
2019-05-26T06:12:49.711Z,72.85
2019-05-26T06:13:48.659Z,72.61
2019-05-26T06:14:48.678Z,71.40
2019-05-26T06:15:48.632Z,71.20
2019-05-26T06:16:48.625Z,71.20
2019-05-26T06:17:48.653Z,71.00
2019-05-26T06:18:48.606Z,71.57
2019-05-26T06:19:48.647Z,71.26
2019-05-26T06:20:48.596Z,71.84
2019-05-26T06:21:48.575Z,72.24
2019-05-26T06:22:48.574Z,71.13
2019-05-26T06:23:48.549Z,69.51
2019-05-26T06:24:48.570Z,69.81
2019-05-26T06:25:48.527Z,70.93
2019-05-26T06:26:48.525Z,71.70
2019-05-26T06:27:48.504Z,71.40
2019-05-26T06:28:52.162Z,71.40
2019-05-26T06:29:58.596Z,70.25
2019-05-26T06:30:49.493Z,70.65
2019-05-26T06:31:48.949Z,70.96
2019-05-26T06:32:48.453Z,69.85
2019-05-26T06:33:48.453Z,71.47
2019-05-26T06:34:48.542Z,70.96
2019-05-26T06:35:48.441Z,70.56
2019-05-26T06:36:48.474Z,70.42
2019-05-26T06:37:48.412Z,68.97
2019-05-26T06:38:48.389Z,69.58
2019-05-26T06:39:48.381Z,69.18
2019-05-26T06:40:48.379Z,70.36
2019-05-26T06:41:48.350Z,69.14
2019-05-26T06:42:48.347Z,66.31
2019-05-26T06:43:48.361Z,66.01
2019-05-26T06:44:53.464Z,66.21
2019-05-26T06:45:49.335Z,65.57
2019-05-26T06:46:48.296Z,66.08
2019-05-26T06:47:48.281Z,65.37
2019-05-26T06:48:48.272Z,63.96
2019-05-26T06:49:48.260Z,63.96
2019-05-26T06:50:48.300Z,63.22
2019-05-26T06:51:48.242Z,63.25
2019-05-26T06:52:48.227Z,63.32
2019-05-26T06:53:48.249Z,65.27
2019-05-26T06:54:48.208Z,63.93
2019-05-26T06:55:48.250Z,64.73
2019-05-26T06:56:48.213Z,65.54
2019-05-26T06:57:48.170Z,64.84
2019-05-26T06:58:48.173Z,64.30
2019-05-26T06:59:48.163Z,65.01
2019-05-26T07:00:48.158Z,65.21
2019-05-26T07:01:48.136Z,65.41
2019-05-26T07:02:48.125Z,64.67
2019-05-26T07:03:48.128Z,63.16
2019-05-26T07:04:48.091Z,62.55
2019-05-26T07:05:48.106Z,61.95
2019-05-26T07:06:48.081Z,63.46
2019-05-26T07:07:48.060Z,64.24
2019-05-26T07:08:48.053Z,63.03
2019-05-26T07:09:48.040Z,62.93
2019-05-26T07:10:48.048Z,63.23
2019-05-26T07:11:55.904Z,63.81
2019-05-26T07:12:49.013Z,63.20
2019-05-26T07:13:47.994Z,61.99
2019-05-26T07:14:48.009Z,61.59
2019-05-26T07:15:47.994Z,61.59
2019-05-26T07:16:48.012Z,61.69
2019-05-26T07:17:47.970Z,58.67
2019-05-26T07:18:47.951Z,58.44
2019-05-26T07:19:47.943Z,59.84
2019-05-26T07:20:47.936Z,59.14
2019-05-26T07:21:47.929Z,58.84
2019-05-26T07:22:47.908Z,59.14
2019-05-26T07:23:47.929Z,58.23
2019-05-26T07:24:47.879Z,58.54
2019-05-26T07:25:47.861Z,57.83
2019-05-26T07:26:47.879Z,58.23
2019-05-26T07:27:47.930Z,56.70
2019-05-26T07:28:47.833Z,58.11
2019-05-26T07:29:47.826Z,56.29
2019-05-26T07:30:47.807Z,56.40
2019-05-26T07:31:47.814Z,56.09
2019-05-26T07:32:47.782Z,57.81
2019-05-26T07:33:47.779Z,58.71
2019-05-26T07:34:47.762Z,60.19
2019-05-26T07:35:49.769Z,58.78
2019-05-26T07:36:47.755Z,58.48
2019-05-26T07:37:47.735Z,58.78
2019-05-26T07:38:47.720Z,55.94
2019-05-26T07:39:47.711Z,54.93
2019-05-26T07:40:47.694Z,57.95
2019-05-26T07:41:47.703Z,57.24
2019-05-26T07:42:47.701Z,56.82
2019-05-26T07:43:47.677Z,58.33
2019-05-26T07:44:47.654Z,56.11
2019-05-26T07:45:47.648Z,57.42
2019-05-26T07:46:47.656Z,56.69
2019-05-26T07:47:47.628Z,58.09
2019-05-26T07:48:47.611Z,56.69
2019-05-26T07:49:47.612Z,55.88
2019-05-26T07:50:47.625Z,52.06
2019-05-26T07:51:47.630Z,52.37
2019-05-26T07:52:47.585Z,54.78
2019-05-26T07:53:47.551Z,57.37
2019-05-26T07:54:47.557Z,53.65
2019-05-26T07:55:47.536Z,52.94
2019-05-26T07:56:47.525Z,52.55
2019-05-26T07:57:47.541Z,54.96
2019-05-26T07:58:47.535Z,56.66
2019-05-26T07:59:47.494Z,55.93
2019-05-26T08:00:47.489Z,52.62
2019-05-26T08:01:47.498Z,53.82
2019-05-26T08:02:47.475Z,53.52
2019-05-26T08:03:47.458Z,54.60
2019-05-26T08:04:47.467Z,52.51
2019-05-26T08:05:47.425Z,52.51
2019-05-26T08:06:47.422Z,52.12
2019-05-26T08:07:47.421Z,51.51
2019-05-26T08:08:47.412Z,52.80
2019-05-26T08:09:47.386Z,52.49
2019-05-26T08:10:47.367Z,54.30
2019-05-26T08:11:47.355Z,54.00
2019-05-26T08:12:47.375Z,56.41
2019-05-26T08:13:47.361Z,54.68
2019-05-26T08:14:47.335Z,53.87
2019-05-26T08:15:47.320Z,53.27
2019-05-26T08:16:47.303Z,52.26
2019-05-26T08:17:47.317Z,50.26
2019-05-26T08:18:47.301Z,49.84
2019-05-26T08:19:47.268Z,49.66
2019-05-26T08:20:47.267Z,49.56
2019-05-26T08:21:47.255Z,51.67
2019-05-26T08:22:47.248Z,51.76
2019-05-26T08:23:47.241Z,52.07
2019-05-26T08:24:47.222Z,50.36
2019-05-26T08:25:47.242Z,48.66
2019-05-26T08:26:47.213Z,49.54
2019-05-26T08:27:47.199Z,54.58
2019-05-26T08:28:47.202Z,50.13
2019-05-26T08:29:47.165Z,48.93
2019-05-26T08:30:47.188Z,49.63
2019-05-26T08:31:47.136Z,49.33
2019-05-26T08:32:47.127Z,51.44
2019-05-26T08:33:47.146Z,50.54
2019-05-26T08:34:47.130Z,50.13
2019-05-26T08:35:47.102Z,49.33
2019-05-26T08:36:47.097Z,50.13
2019-05-26T08:37:47.078Z,50.04
2019-05-26T08:38:47.094Z,49.61
2019-05-26T08:39:48.432Z,49.74
2019-05-26T08:40:47.038Z,50.31
2019-05-26T08:41:47.030Z,51.34
2019-05-26T08:42:47.030Z,51.62
2019-05-26T08:43:47.037Z,51.92
2019-05-26T08:44:47.026Z,54.43
2019-05-26T08:45:46.984Z,50.89
2019-05-26T08:46:46.974Z,50.89
2019-05-26T08:47:46.982Z,49.08
2019-05-26T08:48:46.948Z,49.08
2019-05-26T08:49:46.971Z,50.49
2019-05-26T08:50:46.929Z,48.08
2019-05-26T08:51:46.921Z,47.36
2019-05-26T08:52:46.923Z,49.87
2019-05-26T08:53:46.914Z,50.67
2019-05-26T08:54:46.885Z,48.76
2019-05-26T08:55:46.890Z,50.16
2019-05-26T08:56:46.868Z,50.96
2019-05-26T08:57:46.862Z,51.94
2019-05-26T08:58:46.855Z,50.26
2019-05-26T08:59:46.852Z,49.14
2019-05-26T09:00:46.821Z,47.46
2019-05-26T09:01:46.815Z,47.76
2019-05-26T09:02:46.796Z,47.16
2019-05-26T09:03:46.808Z,48.16
2019-05-26T09:04:46.789Z,48.96
2019-05-26T09:05:46.780Z,49.58
2019-05-26T09:06:46.752Z,50.96
2019-05-26T09:07:46.759Z,49.69
2019-05-26T09:08:46.753Z,49.46
2019-05-26T09:09:46.775Z,52.19
2019-05-26T09:10:46.706Z,52.07
2019-05-26T09:11:46.695Z,51.67
2019-05-26T09:12:59.753Z,49.76
2019-05-26T09:13:47.672Z,48.66
2019-05-26T09:14:46.668Z,50.16
2019-05-26T09:15:46.714Z,52.87
2019-05-26T09:16:46.660Z,52.77
2019-05-26T09:17:46.650Z,52.34
2019-05-26T09:18:46.618Z,50.14
2019-05-26T09:19:46.626Z,52.74
2019-05-26T09:20:46.621Z,51.54
2019-05-26T09:21:46.615Z,52.64
2019-05-26T09:22:46.584Z,52.32
2019-05-26T09:23:46.587Z,51.50
2019-05-26T09:24:46.565Z,52.00
2019-05-26T09:25:46.862Z,51.59
2019-05-26T09:26:46.560Z,51.79
2019-05-26T09:27:46.522Z,49.40
2019-05-26T09:28:46.543Z,48.99
2019-05-26T09:29:46.533Z,49.09
2019-05-26T09:30:46.499Z,51.57
2019-05-26T09:31:46.598Z,46.89
2019-05-26T09:32:46.526Z,46.47
2019-05-26T09:33:46.471Z,46.07
2019-05-26T09:34:46.477Z,45.29
2019-05-26T09:35:46.445Z,46.17
2019-05-26T09:36:46.471Z,50.57
2019-05-26T09:37:46.471Z,50.17
2019-05-26T09:38:46.439Z,45.37
2019-05-26T09:39:46.420Z,45.47
2019-05-26T09:40:46.441Z,45.77
2019-05-26T09:41:46.441Z,47.99
2019-05-26T09:42:46.451Z,47.27
2019-05-26T09:43:46.367Z,46.27
2019-05-26T09:44:46.334Z,49.47
2019-05-26T09:45:46.325Z,48.49
2019-05-26T09:46:46.338Z,47.57
2019-05-26T09:47:46.309Z,45.77
2019-05-26T09:48:46.292Z,46.37
2019-05-26T09:49:46.290Z,46.67
2019-05-26T09:50:46.273Z,46.57
2019-05-26T09:51:46.281Z,46.15
2019-05-26T09:52:46.251Z,46.37
2019-05-26T09:54:00.574Z,44.85
2019-05-26T09:54:47.247Z,47.45
2019-05-26T09:55:46.221Z,44.45
2019-05-26T09:56:46.228Z,45.75
2019-05-26T09:57:46.198Z,44.15
2019-05-26T09:58:46.192Z,45.55
2019-05-26T09:59:46.182Z,42.95
2019-05-26T10:00:46.168Z,47.45
2019-05-26T10:01:46.187Z,47.55
2019-05-26T10:02:46.200Z,47.15
2019-05-26T10:03:46.139Z,47.75
2019-05-26T10:04:46.151Z,44.35
2019-05-26T10:05:46.155Z,44.15
2019-05-26T10:06:46.133Z,43.98
2019-05-26T10:07:46.122Z,44.85
2019-05-26T10:08:46.089Z,45.57
2019-05-26T10:09:46.068Z,43.98
2019-05-26T10:10:46.066Z,45.37
2019-05-26T10:11:46.046Z,45.37
2019-05-26T10:12:46.054Z,46.19
2019-05-26T10:13:46.020Z,45.69
2019-05-26T10:14:47.822Z,47.39
2019-05-26T10:15:46.005Z,49.29
2019-05-26T10:16:45.990Z,49.19
2019-05-26T10:17:45.990Z,51.69
2019-05-26T10:18:45.970Z,49.47
2019-05-26T10:19:45.955Z,48.77
2019-05-26T10:20:45.945Z,47.95
2019-05-26T10:21:45.934Z,50.27
2019-05-26T10:22:45.942Z,50.04
2019-05-26T10:23:45.908Z,50.04
2019-05-26T10:24:45.907Z,49.92
2019-05-26T10:25:45.885Z,48.52
2019-05-26T10:26:45.883Z,46.92
2019-05-26T10:27:45.917Z,46.53
2019-05-26T10:28:45.869Z,48.82
2019-05-26T10:29:45.847Z,48.32
2019-05-26T10:30:45.849Z,49.20
2019-05-26T10:31:45.845Z,49.20
2019-05-26T10:32:45.865Z,45.51
2019-05-26T10:33:45.820Z,43.41
2019-05-26T10:34:45.799Z,44.61
2019-05-26T10:35:45.803Z,47.40
2019-05-26T10:36:45.772Z,46.01
2019-05-26T10:37:45.763Z,45.40
2019-05-26T10:38:45.775Z,48.30
2019-05-26T10:39:45.851Z,45.98
2019-05-26T10:40:45.724Z,44.49
2019-05-26T10:41:45.720Z,47.08
2019-05-26T10:42:45.706Z,47.88
2019-05-26T10:43:47.634Z,45.48
2019-05-26T10:44:45.688Z,45.29
2019-05-26T10:45:45.678Z,46.76
2019-05-26T10:46:45.663Z,46.58
2019-05-26T10:47:45.657Z,45.98
2019-05-26T10:48:45.665Z,46.19
2019-05-26T10:49:45.631Z,47.16
2019-05-26T10:50:45.616Z,43.27
2019-05-26T10:51:45.613Z,43.47
2019-05-26T10:52:45.612Z,43.67
2019-05-26T10:53:45.607Z,43.37
2019-05-26T10:54:45.577Z,42.77
2019-05-26T10:55:45.571Z,41.88
2019-05-26T10:56:45.554Z,43.67
2019-05-26T10:57:45.542Z,46.76
2019-05-26T10:58:45.545Z,47.06
2019-05-26T10:59:45.519Z,45.36
2019-05-26T11:00:45.508Z,42.95
2019-05-26T11:01:45.501Z,42.55
2019-05-26T11:02:45.527Z,41.97
2019-05-26T11:03:45.492Z,42.95
2019-05-26T11:04:45.462Z,44.46
2019-05-26T11:05:45.455Z,45.66
2019-05-26T11:06:45.441Z,44.05
2019-05-26T11:07:45.469Z,47.06
2019-05-26T11:08:45.433Z,47.24
2019-05-26T11:09:45.407Z,41.96
2019-05-26T11:10:45.395Z,46.14
2019-05-26T11:11:45.398Z,42.75
2019-05-26T11:12:45.409Z,45.14
2019-05-26T11:13:45.396Z,40.95
2019-05-26T11:14:45.356Z,41.36
2019-05-26T11:15:45.343Z,43.15
2019-05-26T11:16:45.333Z,43.05
2019-05-26T11:17:45.322Z,41.63
2019-05-26T11:18:45.332Z,43.33
2019-05-26T11:19:45.322Z,41.74
2019-05-26T11:20:45.283Z,40.14
2019-05-26T11:21:45.287Z,41.53
2019-05-26T11:22:45.296Z,43.43
2019-05-26T11:23:45.252Z,44.12
2019-05-26T11:24:45.268Z,43.80
2019-05-26T11:25:45.232Z,41.52
2019-05-26T11:26:45.225Z,39.12
2019-05-26T11:27:45.227Z,41.61
2019-05-26T11:28:45.195Z,43.51
2019-05-26T11:29:45.200Z,40.52
2019-05-26T11:30:45.176Z,38.53
2019-05-26T11:31:45.181Z,39.23
2019-05-26T11:32:45.237Z,41.61
2019-05-26T11:33:45.142Z,43.11
2019-05-26T11:35:00.421Z,41.82
2019-05-26T11:35:46.154Z,42.81
2019-05-26T11:36:45.116Z,41.69
2019-05-26T11:37:45.122Z,42.09
2019-05-26T11:38:45.091Z,42.99
2019-05-26T11:39:45.098Z,41.79
2019-05-26T11:40:45.121Z,41.77
2019-05-26T11:41:54.372Z,38.41
2019-05-26T11:42:46.045Z,38.39
2019-05-26T11:43:45.109Z,36.50
2019-05-26T11:44:45.187Z,36.30
2019-05-26T11:45:45.040Z,40.38
2019-05-26T11:46:45.000Z,38.99
2019-05-26T11:47:45.000Z,34.92
2019-05-26T11:48:44.989Z,36.22
2019-05-26T11:49:44.969Z,38.01
2019-05-26T11:50:44.989Z,40.70
2019-05-26T11:51:44.976Z,40.90
2019-05-26T11:52:44.941Z,40.40
2019-05-26T11:53:44.926Z,39.31
2019-05-26T11:54:44.967Z,41.67
2019-05-26T11:55:44.942Z,40.78
2019-05-26T11:56:44.915Z,41.17
2019-05-26T11:57:44.898Z,39.59
2019-05-26T11:58:44.891Z,38.69
2019-05-26T11:59:47.386Z,38.07
2019-05-26T12:00:44.890Z,39.48
2019-05-26T12:01:44.852Z,40.28
2019-05-26T12:02:44.843Z,40.06
2019-05-26T12:03:44.818Z,40.86
2019-05-26T12:04:44.817Z,41.36
2019-05-26T12:05:44.831Z,41.66
2019-05-26T12:06:44.796Z,40.94
2019-05-26T12:07:44.786Z,38.26
2019-05-26T12:08:44.775Z,38.45
2019-05-26T12:09:44.776Z,38.16
2019-05-26T12:10:44.746Z,38.97
2019-05-26T12:11:44.763Z,38.97
2019-05-26T12:12:44.719Z,39.86
2019-05-26T12:13:44.732Z,39.17
2019-05-26T12:14:44.742Z,41.75
2019-05-26T12:15:44.688Z,36.49
2019-05-26T12:16:44.733Z,36.29
2019-05-26T12:17:44.664Z,37.99
2019-05-26T12:18:44.658Z,38.18
2019-05-26T12:19:44.641Z,41.66
2019-05-26T12:20:44.630Z,41.17
2019-05-26T12:21:44.646Z,39.86
2019-05-26T12:22:44.619Z,37.79
2019-05-26T12:23:44.646Z,40.68
2019-05-26T12:24:44.587Z,40.08
2019-05-26T12:25:44.587Z,37.00
2019-05-26T12:26:44.589Z,37.90
2019-05-26T12:27:44.553Z,41.38
2019-05-26T12:28:44.541Z,40.78
2019-05-26T12:29:44.552Z,39.98
2019-05-26T12:30:44.521Z,38.77
2019-05-26T12:31:44.526Z,36.90
2019-05-26T12:32:44.569Z,37.48
2019-05-26T12:33:44.517Z,37.28
2019-05-26T12:34:44.480Z,38.67
2019-05-26T12:35:44.474Z,35.49
2019-05-26T12:36:44.481Z,36.50
2019-05-26T12:37:44.445Z,37.99
2019-05-26T12:38:44.434Z,37.60
2019-05-26T12:39:44.421Z,39.29
2019-05-26T12:40:44.411Z,36.30
2019-05-26T12:41:44.420Z,37.92
2019-05-26T12:42:44.409Z,39.31
2019-05-26T12:43:44.384Z,37.21
2019-05-26T12:44:49.386Z,41.38
2019-05-26T12:45:45.409Z,40.28
2019-05-26T12:46:44.372Z,40.00
2019-05-26T12:47:44.357Z,39.11
2019-05-26T12:48:44.321Z,37.70
2019-05-26T12:49:44.317Z,39.98
2019-05-26T12:50:44.363Z,40.08
2019-05-26T12:51:44.386Z,39.01
2019-05-26T12:52:44.304Z,40.10